createdAt,value
2023-01-17T00:00:40.939Z,3.84
2023-01-17T00:03:07.495Z,3.80
2023-01-17T00:05:52.623Z,3.78
2023-01-17T00:08:37.831Z,3.68
2023-01-17T00:11:04.389Z,3.64
2023-01-17T00:13:30.968Z,3.58
2023-01-17T00:15:57.640Z,3.65
2023-01-17T00:18:24.623Z,3.58
2023-01-17T00:21:09.656Z,3.46
2023-01-17T00:24:01.799Z,3.56
2023-01-17T00:26:31.121Z,3.58
2023-01-17T00:28:57.651Z,3.78
2023-01-17T00:33:55.420Z,3.74
2023-01-17T00:36:22.004Z,3.78
2023-01-17T00:38:48.523Z,3.75
2023-01-17T00:41:15.368Z,3.74
2023-01-17T00:44:00.618Z,3.78
2023-01-17T00:46:46.225Z,3.74
2023-01-17T00:49:31.746Z,3.71
2023-01-17T00:55:06.531Z,3.76
2023-01-17T00:57:51.559Z,3.70
2023-01-17T01:00:39.950Z,3.77
2023-01-17T01:03:29.058Z,3.78
2023-01-17T01:06:14.094Z,3.79
2023-01-17T01:08:59.283Z,3.87
2023-01-17T01:11:44.261Z,3.88
2023-01-17T01:14:29.654Z,3.92
2023-01-17T01:17:14.698Z,3.91
2023-01-17T01:20:00.247Z,3.79
2023-01-17T01:22:45.311Z,3.68
2023-01-17T01:25:30.658Z,3.63
2023-01-17T01:28:24.125Z,3.74
2023-01-17T01:31:09.632Z,3.82
2023-01-17T01:33:36.258Z,3.82
2023-01-17T01:36:02.896Z,3.84
2023-01-17T01:38:29.509Z,3.79
2023-01-17T01:40:57.009Z,3.69
2023-01-17T01:43:47.290Z,3.73
2023-01-17T01:46:22.438Z,3.80
2023-01-17T01:48:51.368Z,3.81
2023-01-17T01:51:24.004Z,3.84
2023-01-17T01:53:54.528Z,3.86
2023-01-17T01:56:23.709Z,3.82
2023-01-17T01:58:53.044Z,3.84
2023-01-17T02:01:20.222Z,3.74
2023-01-17T02:03:48.036Z,3.63
2023-01-17T02:06:19.380Z,3.61
2023-01-17T02:08:46.309Z,3.80
2023-01-17T02:11:13.052Z,3.84
2023-01-17T02:13:40.934Z,3.98
2023-01-17T02:16:13.513Z,4.03
2023-01-17T02:19:01.218Z,3.93
2023-01-17T02:21:40.886Z,3.91
2023-01-17T02:27:04.667Z,4.00
2023-01-17T02:32:11.599Z,3.98
2023-01-17T02:34:56.078Z,3.96
2023-01-17T02:37:35.015Z,4.05
2023-01-17T02:40:14.482Z,4.02
2023-01-17T02:42:49.002Z,4.13
2023-01-17T02:45:18.390Z,4.01
2023-01-17T02:47:45.061Z,3.99
2023-01-17T02:50:23.941Z,4.01
2023-01-17T02:52:56.581Z,3.95
2023-01-17T02:56:06.172Z,4.08
2023-01-17T02:58:49.532Z,4.10
2023-01-17T03:01:34.039Z,4.24
2023-01-17T03:04:20.721Z,4.17
2023-01-17T03:06:54.017Z,4.19
2023-01-17T03:09:22.719Z,4.21
2023-01-17T03:11:49.283Z,4.27
2023-01-17T03:14:15.839Z,4.26
2023-01-17T03:16:42.797Z,4.21
2023-01-17T03:19:10.031Z,4.33
2023-01-17T03:21:36.753Z,4.33
2023-01-17T03:24:03.523Z,4.39
2023-01-17T03:26:30.360Z,4.31
2023-01-17T03:28:56.951Z,4.33
2023-01-17T03:31:24.057Z,4.26
2023-01-17T03:33:50.621Z,4.35
2023-01-17T03:36:17.175Z,4.31
2023-01-17T03:38:43.749Z,4.32
2023-01-17T03:41:10.304Z,4.41
2023-01-17T03:43:37.008Z,4.36
2023-01-17T03:46:05.866Z,4.30
2023-01-17T03:48:33.214Z,4.16
2023-01-17T03:50:59.995Z,4.06
2023-01-17T03:53:26.720Z,4.02
2023-01-17T03:55:53.298Z,3.98
2023-01-17T04:00:51.544Z,3.75
2023-01-17T04:03:18.073Z,3.52
2023-01-17T04:05:44.852Z,3.25
2023-01-17T04:08:11.592Z,3.04
2023-01-17T04:10:38.216Z,3.07
2023-01-17T04:13:04.953Z,3.08
2023-01-17T04:15:31.616Z,2.98
2023-01-17T04:17:58.407Z,2.82
2023-01-17T04:20:37.938Z,2.88
2023-01-17T04:23:05.186Z,2.88
2023-01-17T04:25:32.087Z,3.00
2023-01-17T04:28:00.321Z,3.06
2023-01-17T04:30:28.664Z,3.07
2023-01-17T04:32:55.382Z,3.18
2023-01-17T04:35:21.965Z,3.13
2023-01-17T04:37:49.015Z,3.28
2023-01-17T04:40:15.705Z,3.29
2023-01-17T04:42:45.136Z,3.42
2023-01-17T04:45:12.951Z,3.35
2023-01-17T04:47:39.595Z,3.34
2023-01-17T04:50:06.646Z,3.37
2023-01-17T04:52:33.350Z,3.18
2023-01-17T04:54:59.923Z,3.17
2023-01-17T04:57:26.457Z,3.19
2023-01-17T04:59:56.043Z,3.16
2023-01-17T05:02:22.749Z,3.22
2023-01-17T05:04:49.450Z,3.26
2023-01-17T05:07:16.105Z,3.30
2023-01-17T05:09:43.940Z,3.34
2023-01-17T05:12:10.918Z,3.48
2023-01-17T05:14:37.569Z,3.49
2023-01-17T05:17:04.139Z,3.51
2023-01-17T05:19:30.744Z,3.40
2023-01-17T05:22:04.153Z,3.42
2023-01-17T05:24:32.341Z,3.43
2023-01-17T05:27:03.226Z,3.35
2023-01-17T05:32:09.132Z,3.26
2023-01-17T05:34:35.714Z,3.21
2023-01-17T05:37:02.409Z,3.19
2023-01-17T05:39:31.075Z,3.00
2023-01-17T05:41:58.105Z,2.98
2023-01-17T05:44:24.685Z,3.08
2023-01-17T05:46:51.272Z,3.16
2023-01-17T05:49:17.857Z,3.31
2023-01-17T05:51:44.395Z,3.30
2023-01-17T05:56:42.323Z,3.02
2023-01-17T05:59:09.033Z,2.90
2023-01-17T06:01:35.613Z,2.71
2023-01-17T06:04:02.190Z,2.92
2023-01-17T06:06:28.723Z,2.57
2023-01-17T06:11:33.371Z,2.63
2023-01-17T06:13:59.945Z,2.40
2023-01-17T06:16:26.565Z,2.52
2023-01-17T06:18:53.283Z,2.36
2023-01-17T06:21:19.915Z,2.12
2023-01-17T06:23:46.503Z,2.33
2023-01-17T06:26:13.182Z,2.32
2023-01-17T06:28:39.706Z,2.43
2023-01-17T06:31:09.574Z,2.30
2023-01-17T06:33:36.231Z,2.38
2023-01-17T06:36:02.905Z,2.57
2023-01-17T06:38:30.050Z,2.43
2023-01-17T06:41:00.392Z,2.22
2023-01-17T06:43:28.931Z,1.94
2023-01-17T06:45:55.501Z,2.05
2023-01-17T06:48:22.060Z,1.99
2023-01-17T06:50:49.905Z,2.15
2023-01-17T06:53:16.755Z,2.39
2023-01-17T06:58:16.333Z,2.23
2023-01-17T07:00:42.958Z,2.38
2023-01-17T07:03:20.205Z,2.69
2023-01-17T07:05:46.985Z,2.67
2023-01-17T07:08:13.683Z,2.64
2023-01-17T07:10:40.324Z,2.84
2023-01-17T07:13:06.952Z,2.80
2023-01-17T07:15:34.050Z,2.71
2023-01-17T07:18:02.100Z,2.65
2023-01-17T07:20:28.711Z,2.51
2023-01-17T07:22:55.303Z,2.57
2023-01-17T07:25:21.992Z,2.54
2023-01-17T07:27:48.723Z,2.56
2023-01-17T07:30:15.510Z,2.48
2023-01-17T07:32:42.137Z,2.37
2023-01-17T07:35:09.049Z,2.29
2023-01-17T07:37:35.673Z,2.29
2023-01-17T07:40:03.172Z,2.32
2023-01-17T07:42:29.779Z,2.39
2023-01-17T07:44:56.345Z,2.61
2023-01-17T07:47:24.884Z,2.42
2023-01-17T07:49:51.490Z,2.25
2023-01-17T07:54:49.315Z,2.39
2023-01-17T07:57:15.905Z,2.50
2023-01-17T07:59:42.484Z,2.55
2023-01-17T08:02:20.700Z,2.49
2023-01-17T08:04:48.015Z,2.54
2023-01-17T08:07:15.127Z,2.65
2023-01-17T08:09:43.122Z,2.48
2023-01-17T08:12:10.704Z,2.27
2023-01-17T08:14:37.285Z,2.46
2023-01-17T08:17:15.100Z,2.50
2023-01-17T08:19:41.762Z,2.38
2023-01-17T08:22:08.383Z,2.61
2023-01-17T08:24:35.504Z,2.68
2023-01-17T08:27:02.172Z,2.71
2023-01-17T08:29:29.475Z,2.54
2023-01-17T08:31:56.085Z,2.50
2023-01-17T08:34:22.748Z,2.33
2023-01-17T08:36:49.317Z,2.25
2023-01-17T08:39:15.884Z,2.24
2023-01-17T08:41:42.393Z,2.21
2023-01-17T08:44:09.035Z,2.47
2023-01-17T08:46:38.420Z,2.43
2023-01-17T08:49:05.527Z,2.58
2023-01-17T08:51:32.968Z,2.83
2023-01-17T08:53:59.588Z,2.99
2023-01-17T08:56:27.523Z,3.03
2023-01-17T08:58:54.139Z,3.23
2023-01-17T09:01:20.866Z,3.40
2023-01-17T09:03:51.520Z,3.60
2023-01-17T09:06:18.162Z,3.62
2023-01-17T09:08:47.172Z,3.80
2023-01-17T09:11:17.575Z,3.91
2023-01-17T09:13:44.773Z,4.06
2023-01-17T09:16:11.381Z,3.88
2023-01-17T09:18:38.130Z,3.81
2023-01-17T09:21:30.831Z,3.90
2023-01-17T09:23:57.487Z,3.98
2023-01-17T09:26:27.131Z,3.98
2023-01-17T09:28:54.312Z,4.26
2023-01-17T09:31:22.989Z,4.48
2023-01-17T09:36:24.117Z,4.74
2023-01-17T09:38:56.732Z,4.98
2023-01-17T09:41:30.498Z,5.04
2023-01-17T09:44:03.229Z,5.21
2023-01-17T09:46:33.895Z,5.44
2023-01-17T09:49:08.695Z,5.70
2023-01-17T09:51:36.885Z,5.95
2023-01-17T09:54:03.747Z,6.26
2023-01-17T09:56:42.805Z,6.42
2023-01-17T09:59:33.206Z,6.20
2023-01-17T10:02:31.157Z,5.95
2023-01-17T10:07:50.019Z,5.14
2023-01-17T10:13:45.358Z,4.90
2023-01-17T10:16:45.973Z,4.64
2023-01-17T10:19:35.685Z,4.72
2023-01-17T10:22:24.212Z,4.66
2023-01-17T10:25:27.310Z,4.77
2023-01-17T10:30:51.295Z,4.72
2023-01-17T10:33:37.673Z,4.85
2023-01-17T10:39:01.357Z,4.91
2023-01-17T10:41:39.917Z,4.93
2023-01-17T10:44:19.999Z,4.94
2023-01-17T10:47:12.837Z,4.92
2023-01-17T10:49:44.978Z,4.94
2023-01-17T10:52:36.573Z,4.94
2023-01-17T10:55:24.468Z,4.97
2023-01-17T10:57:51.382Z,4.88
2023-01-17T11:00:28.633Z,4.98
2023-01-17T11:02:55.647Z,4.94
2023-01-17T11:05:29.108Z,4.98
2023-01-17T11:08:03.959Z,5.06
2023-01-17T11:10:40.300Z,5.05
2023-01-17T11:13:32.134Z,5.02
2023-01-17T11:16:02.303Z,5.01
2023-01-17T11:18:35.247Z,4.95
2023-01-17T11:21:23.412Z,4.93
2023-01-17T11:23:58.334Z,5.02
2023-01-17T11:26:28.876Z,5.06
2023-01-17T11:29:30.805Z,5.15
2023-01-17T11:31:57.471Z,5.10
2023-01-17T11:34:26.370Z,5.15
2023-01-17T11:37:09.807Z,5.11
2023-01-17T11:39:36.355Z,5.17
2023-01-17T11:42:06.419Z,5.18
2023-01-17T11:44:35.135Z,5.20
2023-01-17T11:47:08.982Z,5.25
2023-01-17T11:49:35.741Z,5.29
2023-01-17T11:52:09.126Z,5.16
2023-01-17T11:54:42.640Z,5.29
2023-01-17T11:57:30.936Z,5.28
2023-01-17T12:00:08.760Z,5.30
2023-01-17T12:02:35.786Z,5.36
2023-01-17T12:05:17.046Z,5.28
2023-01-17T12:08:01.888Z,5.26
2023-01-17T12:10:52.970Z,5.37
2023-01-17T12:13:47.117Z,5.43
2023-01-17T12:16:35.175Z,5.51
2023-01-17T12:19:21.193Z,5.53
2023-01-17T12:22:08.652Z,5.64
2023-01-17T12:24:41.374Z,5.73
2023-01-17T12:27:12.864Z,5.80
2023-01-17T12:29:48.394Z,6.00
2023-01-17T12:32:31.606Z,6.16
2023-01-17T12:35:21.004Z,5.99
2023-01-17T12:38:05.561Z,6.03
2023-01-17T12:40:44.451Z,5.97
2023-01-17T12:43:33.033Z,5.92
2023-01-17T12:46:06.970Z,6.01
2023-01-17T12:48:37.951Z,6.00
2023-01-17T12:51:19.409Z,6.04
2023-01-17T12:54:20.037Z,6.11
2023-01-17T12:56:54.663Z,6.14
2023-01-17T12:59:42.598Z,6.03
2023-01-17T13:02:21.550Z,6.00
2023-01-17T13:05:08.894Z,5.98
2023-01-17T13:07:53.624Z,5.92
2023-01-17T13:10:41.364Z,5.92
2023-01-17T13:13:22.745Z,5.79
2023-01-17T13:15:54.308Z,5.80
2023-01-17T13:18:25.974Z,5.79
2023-01-17T13:21:12.180Z,5.76
2023-01-17T13:23:55.977Z,5.66
2023-01-17T13:27:01.442Z,5.73
2023-01-17T13:30:05.847Z,5.67
2023-01-17T13:33:03.570Z,5.64
2023-01-17T13:35:42.976Z,5.61
2023-01-17T13:38:28.473Z,5.64
2023-01-17T13:41:05.084Z,5.60
2023-01-17T13:43:40.630Z,5.58
2023-01-17T13:46:07.625Z,5.36
2023-01-17T13:48:38.640Z,5.21
2023-01-17T13:51:07.547Z,5.29
2023-01-17T13:53:34.140Z,5.26
2023-01-17T13:56:18.928Z,5.38
2023-01-17T13:58:47.274Z,5.34
2023-01-17T14:03:51.352Z,5.36
2023-01-17T14:06:36.166Z,5.30
2023-01-17T14:09:08.724Z,5.29
2023-01-17T14:12:02.602Z,5.32
2023-01-17T14:14:44.081Z,5.22
2023-01-17T14:17:16.765Z,5.30
2023-01-17T14:19:48.417Z,5.38
2023-01-17T14:22:20.960Z,5.42
2023-01-17T14:24:58.513Z,5.41
2023-01-17T14:27:27.506Z,5.32
2023-01-17T14:29:59.120Z,5.32
2023-01-17T14:32:35.454Z,5.22
2023-01-17T14:35:02.625Z,5.20
2023-01-17T14:40:26.581Z,5.28
2023-01-17T14:43:13.963Z,5.21
2023-01-17T14:45:42.426Z,5.26
2023-01-17T14:48:18.984Z,5.16
2023-01-17T14:50:50.346Z,5.18
2023-01-17T14:53:20.197Z,5.11
2023-01-17T14:55:55.283Z,5.16
2023-01-17T14:58:24.924Z,4.98
2023-01-17T15:01:03.092Z,4.85
2023-01-17T15:03:33.807Z,5.21
2023-01-17T15:06:10.887Z,4.95
2023-01-17T15:08:37.709Z,5.02
2023-01-17T15:11:16.138Z,5.12
2023-01-17T15:13:49.940Z,5.08
2023-01-17T15:16:28.274Z,4.95
2023-01-17T15:18:56.347Z,4.95
2023-01-17T15:21:26.528Z,4.97
2023-01-17T15:23:58.212Z,4.87
2023-01-17T15:26:28.355Z,4.96
2023-01-17T15:29:03.126Z,4.85
2023-01-17T15:31:41.832Z,4.80
2023-01-17T15:34:16.647Z,4.68
2023-01-17T15:36:43.370Z,4.70
2023-01-17T15:42:26.471Z,4.67
2023-01-17T15:44:59.613Z,4.83
2023-01-17T15:47:30.916Z,4.77
2023-01-17T15:49:58.401Z,4.71
2023-01-17T15:52:25.018Z,4.74
2023-01-17T15:54:54.703Z,4.71
2023-01-17T15:57:28.338Z,4.65
2023-01-17T15:59:54.971Z,4.55
2023-01-17T16:02:45.541Z,4.48
2023-01-17T16:05:34.050Z,4.51
2023-01-17T16:08:03.415Z,4.57
2023-01-17T16:10:32.139Z,4.54
2023-01-17T16:18:23.091Z,4.46
2023-01-17T16:21:00.062Z,4.29
2023-01-17T16:23:28.216Z,4.21
2023-01-17T16:25:54.815Z,4.48
2023-01-17T16:28:21.402Z,4.45
2023-01-17T16:30:49.022Z,4.42
2023-01-17T16:33:16.249Z,4.46
2023-01-17T16:35:43.244Z,4.50
2023-01-17T16:38:14.147Z,4.51
2023-01-17T16:40:44.556Z,4.56
2023-01-17T16:43:12.934Z,4.48
2023-01-17T16:48:32.972Z,4.43
2023-01-17T16:56:18.452Z,4.53
2023-01-17T16:58:45.250Z,4.56
2023-01-17T17:01:17.643Z,4.46
2023-01-17T17:03:45.096Z,4.43
2023-01-17T17:08:43.795Z,4.51
2023-01-17T17:11:24.629Z,4.45
2023-01-17T17:19:06.504Z,4.47
2023-01-17T17:21:34.691Z,4.43
2023-01-17T17:24:02.187Z,4.47
2023-01-17T17:26:32.530Z,4.45
2023-01-17T17:28:59.260Z,4.34
2023-01-17T17:31:26.141Z,4.27
2023-01-17T17:33:53.549Z,4.16
2023-01-17T17:36:22.482Z,4.10
2023-01-17T17:38:52.112Z,4.01
2023-01-17T17:41:21.975Z,3.92
2023-01-17T17:46:23.615Z,3.86
2023-01-17T17:48:50.249Z,3.86
2023-01-17T17:51:23.137Z,3.93
2023-01-17T17:53:50.270Z,3.96
2023-01-17T17:56:16.826Z,3.88
2023-01-17T17:58:46.078Z,3.74
2023-01-17T18:01:12.920Z,3.66
2023-01-17T18:03:39.783Z,3.50
2023-01-17T18:06:09.325Z,3.41
2023-01-17T18:08:37.707Z,3.59
2023-01-17T18:11:09.206Z,3.50
2023-01-17T18:13:35.703Z,3.53
2023-01-17T18:16:08.823Z,3.64
2023-01-17T18:18:37.206Z,3.53
2023-01-17T18:21:17.771Z,3.51
2023-01-17T18:23:45.179Z,3.63
2023-01-17T18:26:23.157Z,3.69
2023-01-17T18:28:50.057Z,3.63
2023-01-17T18:33:55.569Z,3.59
2023-01-17T18:36:23.659Z,3.58
2023-01-17T18:41:29.924Z,3.69
2023-01-17T18:43:57.367Z,3.42
2023-01-17T18:46:28.436Z,3.29
2023-01-17T18:48:58.346Z,3.00
2023-01-17T18:51:25.915Z,3.01
2023-01-17T18:53:55.473Z,2.92
2023-01-17T18:56:23.274Z,2.98
2023-01-17T18:58:51.039Z,3.10
2023-01-17T19:01:23.705Z,3.17
2023-01-17T19:03:53.020Z,3.22
2023-01-17T19:06:23.532Z,3.02
2023-01-17T19:08:51.928Z,3.10
2023-01-17T19:11:19.790Z,3.04
2023-01-17T19:13:46.343Z,3.06
2023-01-17T19:16:20.066Z,2.79
2023-01-17T19:18:47.378Z,2.82
2023-01-17T19:21:17.215Z,2.85
2023-01-17T19:23:43.849Z,2.85
2023-01-17T19:26:12.553Z,2.91
2023-01-17T19:28:41.016Z,2.91
2023-01-17T19:31:10.358Z,2.93
2023-01-17T19:33:39.138Z,2.91
2023-01-17T19:36:09.062Z,2.94
2023-01-17T19:38:37.357Z,2.88
2023-01-17T19:41:15.429Z,2.93
2023-01-17T19:43:42.555Z,3.09
2023-01-17T19:46:10.473Z,3.06
2023-01-17T19:48:38.377Z,3.04
2023-01-17T19:51:06.323Z,2.93
2023-01-17T19:56:16.692Z,2.90
2023-01-17T19:58:44.666Z,2.82
2023-01-17T20:01:16.811Z,2.80
2023-01-17T20:03:44.999Z,2.74
2023-01-17T20:06:17.221Z,2.91
2023-01-17T20:08:44.992Z,3.15
2023-01-17T20:11:14.947Z,3.08
2023-01-17T20:13:42.335Z,2.96
2023-01-17T20:16:11.538Z,3.00
2023-01-17T20:18:38.281Z,3.08
2023-01-17T20:21:10.370Z,2.93
2023-01-17T20:23:39.323Z,2.78
2023-01-17T20:28:39.669Z,2.58
2023-01-17T20:31:14.623Z,2.79
2023-01-17T20:33:43.360Z,2.77
2023-01-17T20:36:14.980Z,2.64
2023-01-17T20:38:45.820Z,2.90
2023-01-17T20:41:24.417Z,2.67
2023-01-17T20:43:53.417Z,2.91
2023-01-17T20:51:30.381Z,2.71
2023-01-17T20:53:59.857Z,2.76
2023-01-17T20:56:27.617Z,2.84
2023-01-17T20:58:56.208Z,3.02
2023-01-17T21:01:23.203Z,2.91
2023-01-17T21:03:53.229Z,2.91
2023-01-17T21:06:21.722Z,2.86
2023-01-17T21:08:49.089Z,2.74
2023-01-17T21:11:21.179Z,2.81
2023-01-17T21:13:48.911Z,2.79
2023-01-17T21:16:17.909Z,2.95
2023-01-17T21:18:48.603Z,2.84
2023-01-17T21:21:18.402Z,2.79
2023-01-17T21:23:45.628Z,2.66
2023-01-17T21:26:14.711Z,2.67
2023-01-17T21:28:43.337Z,2.60
2023-01-17T21:31:23.293Z,2.68
2023-01-17T21:34:10.013Z,2.69
2023-01-17T21:36:39.183Z,2.58
2023-01-17T21:39:10.786Z,2.68
2023-01-17T21:41:39.598Z,2.54
2023-01-17T21:44:11.569Z,2.67
2023-01-17T21:46:39.867Z,2.69
2023-01-17T21:49:10.725Z,2.69
2023-01-17T21:54:47.870Z,2.90
2023-01-17T21:57:35.920Z,2.96
2023-01-17T22:00:04.368Z,2.82
2023-01-17T22:02:30.908Z,2.82
2023-01-17T22:04:57.522Z,2.79
2023-01-17T22:07:27.191Z,2.70
2023-01-17T22:09:54.663Z,2.63
2023-01-17T22:12:21.200Z,2.69
2023-01-17T22:14:47.791Z,2.67
2023-01-17T22:17:14.325Z,2.59
2023-01-17T22:19:40.832Z,2.45
2023-01-17T22:22:07.472Z,2.60
2023-01-17T22:24:34.195Z,2.50
2023-01-17T22:29:34.658Z,2.53
2023-01-17T22:32:01.235Z,2.55
2023-01-17T22:34:27.859Z,2.52
2023-01-17T22:36:54.535Z,2.43
2023-01-17T22:39:21.428Z,2.52
2023-01-17T22:41:47.973Z,2.50
2023-01-17T22:44:14.792Z,2.45
2023-01-17T22:46:42.281Z,2.54
2023-01-17T22:49:13.455Z,2.44
2023-01-17T22:51:40.104Z,2.42
2023-01-17T22:54:06.741Z,2.43
2023-01-17T22:56:34.028Z,2.45
2023-01-17T22:59:01.270Z,2.48
2023-01-17T23:01:30.830Z,2.59
2023-01-17T23:03:59.415Z,2.49
2023-01-17T23:06:31.149Z,2.64
2023-01-17T23:09:00.985Z,2.39
2023-01-17T23:11:46.301Z,2.41
2023-01-17T23:14:20.259Z,2.44
2023-01-17T23:17:08.613Z,2.36
2023-01-17T23:19:49.455Z,2.41
2023-01-17T23:22:24.333Z,2.33
2023-01-17T23:25:02.250Z,2.35
2023-01-17T23:27:53.079Z,2.39
2023-01-17T23:30:29.202Z,2.43
2023-01-17T23:32:58.463Z,2.47
2023-01-17T23:35:28.087Z,2.58
2023-01-17T23:38:13.257Z,2.73
2023-01-17T23:40:40.502Z,2.65
2023-01-17T23:43:25.598Z,2.60
2023-01-17T23:45:54.062Z,2.63
2023-01-17T23:48:23.694Z,2.52
2023-01-17T23:50:50.612Z,2.39
2023-01-17T23:53:23.107Z,2.41
2023-01-17T23:55:52.390Z,2.38
2023-01-17T23:58:20.896Z,2.37
